sensor_id;sensor_type;location;lat;lon;timestamp;pressure;altitude;pressure_sealevel;temperature;humidity
43480;BME280;29067;35.492;-97.520;2023-04-28T00:02:03;96575.18;;;11.54;60.16
43480;BME280;29067;35.492;-97.520;2023-04-28T00:04:31;96577.15;;;11.96;60.37
43480;BME280;29067;35.492;-97.520;2023-04-28T00:06:59;96574.89;;;11.60;58.34
43480;BME280;29067;35.492;-97.520;2023-04-28T00:09:26;96574.18;;;10.89;59.72
43480;BME280;29067;35.492;-97.520;2023-04-28T00:11:54;96573.58;;;12.28;57.01
43480;BME280;29067;35.492;-97.520;2023-04-28T00:14:22;96571.04;;;13.22;55.71
43480;BME280;29067;35.492;-97.520;2023-04-28T00:16:51;96566.33;;;11.93;56.18
43480;BME280;29067;35.492;-97.520;2023-04-28T00:19:19;96566.50;;;11.71;55.45
43480;BME280;29067;35.492;-97.520;2023-04-28T00:21:47;96572.13;;;12.74;54.89
43480;BME280;29067;35.492;-97.520;2023-04-28T00:24:17;96578.04;;;13.33;54.19
43480;BME280;29067;35.492;-97.520;2023-04-28T00:26:46;96575.33;;;13.60;52.78
43480;BME280;29067;35.492;-97.520;2023-04-28T00:29:13;96576.04;;;13.79;52.88
43480;BME280;29067;35.492;-97.520;2023-04-28T00:31:42;96574.35;;;13.18;54.00
43480;BME280;29067;35.492;-97.520;2023-04-28T00:34:10;96571.90;;;12.74;55.59
43480;BME280;29067;35.492;-97.520;2023-04-28T00:36:38;96573.38;;;13.31;54.82
43480;BME280;29067;35.492;-97.520;2023-04-28T00:39:06;96573.22;;;14.05;53.84
43480;BME280;29067;35.492;-97.520;2023-04-28T00:41:35;96580.09;;;12.47;55.78
43480;BME280;29067;35.492;-97.520;2023-04-28T00:44:02;96585.42;;;14.10;53.04
43480;BME280;29067;35.492;-97.520;2023-04-28T00:46:33;96593.24;;;11.91;59.29
43480;BME280;29067;35.492;-97.520;2023-04-28T00:49:01;96596.92;;;14.19;55.18
43480;BME280;29067;35.492;-97.520;2023-04-28T00:51:31;96599.28;;;13.12;56.19
43480;BME280;29067;35.492;-97.520;2023-04-28T00:53:59;96596.83;;;12.78;56.39
43480;BME280;29067;35.492;-97.520;2023-04-28T00:56:28;96597.94;;;14.17;54.12
43480;BME280;29067;35.492;-97.520;2023-04-28T00:58:57;96598.58;;;14.75;52.36
43480;BME280;29067;35.492;-97.520;2023-04-28T01:01:25;96602.74;;;14.70;51.88
43480;BME280;29067;35.492;-97.520;2023-04-28T01:03:53;96609.91;;;12.74;54.45
43480;BME280;29067;35.492;-97.520;2023-04-28T01:06:21;96607.85;;;14.14;52.87
43480;BME280;29067;35.492;-97.520;2023-04-28T01:08:49;96607.24;;;13.25;53.59
43480;BME280;29067;35.492;-97.520;2023-04-28T01:11:18;96602.40;;;13.46;53.03
43480;BME280;29067;35.492;-97.520;2023-04-28T01:13:46;96597.34;;;14.06;51.31
43480;BME280;29067;35.492;-97.520;2023-04-28T01:16:13;96593.99;;;14.67;50.72
43480;BME280;29067;35.492;-97.520;2023-04-28T01:18:46;96589.01;;;14.84;50.38
43480;BME280;29067;35.492;-97.520;2023-04-28T01:21:14;96590.52;;;14.65;50.19
43480;BME280;29067;35.492;-97.520;2023-04-28T01:23:52;96601.16;;;13.24;52.75
43480;BME280;29067;35.492;-97.520;2023-04-28T01:26:20;96601.07;;;14.31;50.63
43480;BME280;29067;35.492;-97.520;2023-04-28T01:28:48;96605.30;;;13.62;51.43
43480;BME280;29067;35.492;-97.520;2023-04-28T01:31:16;96607.00;;;13.01;53.06
43480;BME280;29067;35.492;-97.520;2023-04-28T01:33:44;96611.86;;;12.27;54.24
43480;BME280;29067;35.492;-97.520;2023-04-28T01:36:12;96609.38;;;11.30;56.54
43480;BME280;29067;35.492;-97.520;2023-04-28T01:38:39;96604.71;;;13.58;52.77
43480;BME280;29067;35.492;-97.520;2023-04-28T01:41:07;96615.97;;;13.50;53.85
43480;BME280;29067;35.492;-97.520;2023-04-28T01:43:35;96610.81;;;13.26;54.60
43480;BME280;29067;35.492;-97.520;2023-04-28T01:46:02;96608.72;;;14.26;52.32
43480;BME280;29067;35.492;-97.520;2023-04-28T01:48:30;96610.06;;;13.62;53.54
43480;BME280;29067;35.492;-97.520;2023-04-28T01:50:58;96608.02;;;13.35;53.42
43480;BME280;29067;35.492;-97.520;2023-04-28T01:53:27;96607.44;;;14.12;52.18
43480;BME280;29067;35.492;-97.520;2023-04-28T01:55:54;96613.08;;;13.14;53.68
43480;BME280;29067;35.492;-97.520;2023-04-28T01:58:22;96609.45;;;14.27;51.96
43480;BME280;29067;35.492;-97.520;2023-04-28T02:00:50;96613.01;;;12.20;55.79
43480;BME280;29067;35.492;-97.520;2023-04-28T02:03:18;96613.32;;;13.89;53.23
43480;BME280;29067;35.492;-97.520;2023-04-28T02:05:46;96618.71;;;12.85;55.29
43480;BME280;29067;35.492;-97.520;2023-04-28T02:08:14;96609.10;;;13.72;53.21
43480;BME280;29067;35.492;-97.520;2023-04-28T02:10:42;96614.24;;;13.60;53.46
43480;BME280;29067;35.492;-97.520;2023-04-28T02:13:10;96617.81;;;13.69;54.67
43480;BME280;29067;35.492;-97.520;2023-04-28T02:15:39;96615.08;;;11.06;58.12
43480;BME280;29067;35.492;-97.520;2023-04-28T02:18:07;96614.60;;;12.40;56.70
43480;BME280;29067;35.492;-97.520;2023-04-28T02:20:35;96611.08;;;13.30;55.75
43480;BME280;29067;35.492;-97.520;2023-04-28T02:23:03;96611.76;;;13.30;56.48
43480;BME280;29067;35.492;-97.520;2023-04-28T02:25:31;96614.51;;;13.23;55.25
43480;BME280;29067;35.492;-97.520;2023-04-28T02:27:59;96608.53;;;13.60;54.55
43480;BME280;29067;35.492;-97.520;2023-04-28T02:30:27;96610.14;;;13.47;55.29
43480;BME280;29067;35.492;-97.520;2023-04-28T02:32:55;96614.56;;;11.30;57.26
43480;BME280;29067;35.492;-97.520;2023-04-28T02:35:23;96611.28;;;13.49;55.22
43480;BME280;29067;35.492;-97.520;2023-04-28T02:37:50;96608.12;;;13.95;53.86
43480;BME280;29067;35.492;-97.520;2023-04-28T02:40:19;96611.89;;;12.68;55.60
43480;BME280;29067;35.492;-97.520;2023-04-28T02:42:52;96615.02;;;13.22;55.52
43480;BME280;29067;35.492;-97.520;2023-04-28T02:45:20;96626.72;;;10.64;58.30
43480;BME280;29067;35.492;-97.520;2023-04-28T02:47:48;96629.08;;;10.37;59.60
43480;BME280;29067;35.492;-97.520;2023-04-28T02:50:15;96629.98;;;11.17;59.03
43480;BME280;29067;35.492;-97.520;2023-04-28T02:52:43;96629.19;;;11.70;57.96
43480;BME280;29067;35.492;-97.520;2023-04-28T02:55:11;96630.57;;;12.39;56.63
43480;BME280;29067;35.492;-97.520;2023-04-28T02:57:39;96633.46;;;10.68;58.93
43480;BME280;29067;35.492;-97.520;2023-04-28T03:00:08;96638.31;;;10.16;60.01
43480;BME280;29067;35.492;-97.520;2023-04-28T03:02:37;96645.40;;;9.76;61.16
43480;BME280;29067;35.492;-97.520;2023-04-28T03:05:05;96643.32;;;11.03;59.56
43480;BME280;29067;35.492;-97.520;2023-04-28T03:07:33;96642.71;;;11.20;58.53
43480;BME280;29067;35.492;-97.520;2023-04-28T03:10:01;96639.54;;;12.08;57.03
43480;BME280;29067;35.492;-97.520;2023-04-28T03:12:29;96641.05;;;11.96;57.08
43480;BME280;29067;35.492;-97.520;2023-04-28T03:14:58;96638.33;;;11.06;58.22
43480;BME280;29067;35.492;-97.520;2023-04-28T03:17:25;96633.09;;;11.57;57.41
43480;BME280;29067;35.492;-97.520;2023-04-28T03:19:53;96634.82;;;12.54;55.60
43480;BME280;29067;35.492;-97.520;2023-04-28T03:22:21;96634.48;;;11.04;57.22
43480;BME280;29067;35.492;-97.520;2023-04-28T03:24:49;96631.48;;;10.59;59.67
43480;BME280;29067;35.492;-97.520;2023-04-28T03:27:17;96629.44;;;11.13;59.25
43480;BME280;29067;35.492;-97.520;2023-04-28T03:29:45;96623.89;;;10.50;60.73
43480;BME280;29067;35.492;-97.520;2023-04-28T03:32:13;96619.40;;;10.60;60.12
43480;BME280;29067;35.492;-97.520;2023-04-28T03:34:41;96617.07;;;10.41;59.37
43480;BME280;29067;35.492;-97.520;2023-04-28T03:37:09;96619.27;;;11.43;58.64
43480;BME280;29067;35.492;-97.520;2023-04-28T03:39:37;96619.47;;;9.54;62.53
43480;BME280;29067;35.492;-97.520;2023-04-28T03:42:05;96618.11;;;9.08;62.36
43480;BME280;29067;35.492;-97.520;2023-04-28T03:44:33;96618.77;;;8.40;64.08
43480;BME280;29067;35.492;-97.520;2023-04-28T03:47:00;96613.53;;;10.57;62.33
43480;BME280;29067;35.492;-97.520;2023-04-28T03:49:28;96615.93;;;11.00;60.80
43480;BME280;29067;35.492;-97.520;2023-04-28T03:51:56;96624.58;;;8.45;64.27
43480;BME280;29067;35.492;-97.520;2023-04-28T03:54:24;96627.86;;;9.69;63.41
43480;BME280;29067;35.492;-97.520;2023-04-28T03:56:52;96625.84;;;11.25;59.34
43480;BME280;29067;35.492;-97.520;2023-04-28T03:59:20;96624.92;;;9.05;62.22
43480;BME280;29067;35.492;-97.520;2023-04-28T04:01:48;96616.72;;;10.31;61.03
43480;BME280;29067;35.492;-97.520;2023-04-28T04:04:16;96617.38;;;9.41;62.43
43480;BME280;29067;35.492;-97.520;2023-04-28T04:06:44;96607.92;;;9.36;62.20
43480;BME280;29067;35.492;-97.520;2023-04-28T04:09:12;96598.48;;;10.70;59.80
43480;BME280;29067;35.492;-97.520;2023-04-28T04:11:40;96606.07;;;9.27;62.68
43480;BME280;29067;35.492;-97.520;2023-04-28T04:14:08;96609.07;;;8.25;64.39
43480;BME280;29067;35.492;-97.520;2023-04-28T04:16:36;96604.51;;;9.02;64.58
43480;BME280;29067;35.492;-97.520;2023-04-28T04:19:03;96618.09;;;7.36;67.90
43480;BME280;29067;35.492;-97.520;2023-04-28T04:21:31;96617.07;;;7.05;68.74
43480;BME280;29067;35.492;-97.520;2023-04-28T04:23:59;96609.21;;;8.37;67.67
43480;BME280;29067;35.492;-97.520;2023-04-28T04:26:27;96596.52;;;9.29;65.14
43480;BME280;29067;35.492;-97.520;2023-04-28T04:28:55;96588.55;;;9.45;62.99
43480;BME280;29067;35.492;-97.520;2023-04-28T04:31:23;96587.39;;;11.06;61.37
43480;BME280;29067;35.492;-97.520;2023-04-28T04:33:52;96581.15;;;10.34;60.86
43480;BME280;29067;35.492;-97.520;2023-04-28T04:36:19;96580.74;;;9.50;61.91
43480;BME280;29067;35.492;-97.520;2023-04-28T04:38:47;96583.54;;;9.83;63.00
43480;BME280;29067;35.492;-97.520;2023-04-28T04:41:15;96576.34;;;10.77;60.64
43480;BME280;29067;35.492;-97.520;2023-04-28T04:43:43;96572.14;;;10.23;61.68
43480;BME280;29067;35.492;-97.520;2023-04-28T04:46:11;96572.38;;;11.01;60.03
43480;BME280;29067;35.492;-97.520;2023-04-28T04:48:39;96571.81;;;11.74;59.11
43480;BME280;29067;35.492;-97.520;2023-04-28T04:51:07;96576.76;;;11.02;58.31
43480;BME280;29067;35.492;-97.520;2023-04-28T04:53:37;96587.30;;;8.46;61.67
43480;BME280;29067;35.492;-97.520;2023-04-28T04:56:06;96586.69;;;9.98;59.96
43480;BME280;29067;35.492;-97.520;2023-04-28T04:58:33;96590.62;;;10.50;61.67
43480;BME280;29067;35.492;-97.520;2023-04-28T05:01:01;96595.30;;;8.56;62.36
43480;BME280;29067;35.492;-97.520;2023-04-28T05:03:30;96604.75;;;8.17;64.85
43480;BME280;29067;35.492;-97.520;2023-04-28T05:05:58;96606.19;;;7.72;64.74
43480;BME280;29067;35.492;-97.520;2023-04-28T05:08:26;96610.55;;;8.65;65.46
43480;BME280;29067;35.492;-97.520;2023-04-28T05:10:54;96602.72;;;8.96;64.21
43480;BME280;29067;35.492;-97.520;2023-04-28T05:13:22;96598.86;;;10.47;61.19
43480;BME280;29067;35.492;-97.520;2023-04-28T05:15:50;96596.00;;;10.55;60.51
43480;BME280;29067;35.492;-97.520;2023-04-28T05:18:17;96608.84;;;8.69;63.51
43480;BME280;29067;35.492;-97.520;2023-04-28T05:20:45;96619.11;;;7.02;66.73
43480;BME280;29067;35.492;-97.520;2023-04-28T05:23:13;96615.34;;;6.84;71.37
43480;BME280;29067;35.492;-97.520;2023-04-28T05:25:42;96617.70;;;6.72;71.65
43480;BME280;29067;35.492;-97.520;2023-04-28T05:28:10;96611.49;;;8.24;68.41
43480;BME280;29067;35.492;-97.520;2023-04-28T05:30:38;96610.50;;;7.77;69.40
43480;BME280;29067;35.492;-97.520;2023-04-28T05:33:07;96602.30;;;10.03;64.80
43480;BME280;29067;35.492;-97.520;2023-04-28T05:35:35;96612.04;;;8.86;67.00
43480;BME280;29067;35.492;-97.520;2023-04-28T05:38:03;96604.14;;;9.76;64.08
43480;BME280;29067;35.492;-97.520;2023-04-28T05:40:31;96602.88;;;10.07;63.39
43480;BME280;29067;35.492;-97.520;2023-04-28T05:42:59;96604.70;;;9.88;63.28
43480;BME280;29067;35.492;-97.520;2023-04-28T05:45:27;96598.23;;;10.91;60.68
43480;BME280;29067;35.492;-97.520;2023-04-28T05:47:55;96601.82;;;9.53;62.95
43480;BME280;29067;35.492;-97.520;2023-04-28T05:50:22;96604.35;;;9.39;64.00
43480;BME280;29067;35.492;-97.520;2023-04-28T05:52:50;96599.61;;;10.21;61.87
43480;BME280;29067;35.492;-97.520;2023-04-28T05:55:18;96599.76;;;10.20;61.43
43480;BME280;29067;35.492;-97.520;2023-04-28T05:57:46;96604.95;;;8.46;65.19
43480;BME280;29067;35.492;-97.520;2023-04-28T06:00:15;96596.81;;;9.38;62.58
43480;BME280;29067;35.492;-97.520;2023-04-28T06:02:43;96598.18;;;9.61;62.62
43480;BME280;29067;35.492;-97.520;2023-04-28T06:05:10;96600.17;;;9.41;61.89
43480;BME280;29067;35.492;-97.520;2023-04-28T06:07:38;96605.97;;;9.12;62.86
43480;BME280;29067;35.492;-97.520;2023-04-28T06:10:07;96623.56;;;8.18;64.20
43480;BME280;29067;35.492;-97.520;2023-04-28T06:12:35;96633.70;;;7.26;66.93
43480;BME280;29067;35.492;-97.520;2023-04-28T06:15:04;96628.50;;;9.42;63.14
43480;BME280;29067;35.492;-97.520;2023-04-28T06:17:33;96629.69;;;9.31;62.70
43480;BME280;29067;35.492;-97.520;2023-04-28T06:20:01;96637.29;;;9.90;62.14
43480;BME280;29067;35.492;-97.520;2023-04-28T06:22:30;96638.73;;;9.06;61.52
43480;BME280;29067;35.492;-97.520;2023-04-28T06:24:58;96635.24;;;9.98;61.47
43480;BME280;29067;35.492;-97.520;2023-04-28T06:27:26;96639.21;;;9.60;61.70
43480;BME280;29067;35.492;-97.520;2023-04-28T06:29:53;96646.39;;;8.33;63.52
43480;BME280;29067;35.492;-97.520;2023-04-28T06:32:21;96637.21;;;10.11;61.31
43480;BME280;29067;35.492;-97.520;2023-04-28T06:34:50;96633.29;;;9.17;63.02
43480;BME280;29067;35.492;-97.520;2023-04-28T06:37:18;96631.83;;;9.94;61.80
43480;BME280;29067;35.492;-97.520;2023-04-28T06:39:46;96635.39;;;9.32;61.88
43480;BME280;29067;35.492;-97.520;2023-04-28T06:42:19;96636.80;;;9.04;62.47
43480;BME280;29067;35.492;-97.520;2023-04-28T06:44:47;96625.63;;;9.60;63.14
43480;BME280;29067;35.492;-97.520;2023-04-28T06:47:15;96621.32;;;10.24;60.77
43480;BME280;29067;35.492;-97.520;2023-04-28T06:49:43;96618.21;;;10.25;60.15
43480;BME280;29067;35.492;-97.520;2023-04-28T06:52:11;96620.20;;;9.89;60.95
43480;BME280;29067;35.492;-97.520;2023-04-28T06:54:39;96617.74;;;10.22;60.64
43480;BME280;29067;35.492;-97.520;2023-04-28T06:57:06;96617.16;;;10.57;60.53
43480;BME280;29067;35.492;-97.520;2023-04-28T06:59:34;96621.55;;;9.72;60.58
43480;BME280;29067;35.492;-97.520;2023-04-28T07:02:03;96625.89;;;9.27;61.00
43480;BME280;29067;35.492;-97.520;2023-04-28T07:04:31;96631.85;;;9.37;62.22
43480;BME280;29067;35.492;-97.520;2023-04-28T07:06:58;96638.37;;;8.24;64.94
43480;BME280;29067;35.492;-97.520;2023-04-28T07:09:26;96645.23;;;8.45;62.85
43480;BME280;29067;35.492;-97.520;2023-04-28T07:11:54;96653.28;;;6.65;65.79
43480;BME280;29067;35.492;-97.520;2023-04-28T07:14:22;96665.71;;;7.17;67.49
43480;BME280;29067;35.492;-97.520;2023-04-28T07:16:50;96669.92;;;7.10;68.22
43480;BME280;29067;35.492;-97.520;2023-04-28T07:19:23;96666.57;;;8.66;65.74
43480;BME280;29067;35.492;-97.520;2023-04-28T07:21:51;96649.20;;;7.55;68.37
43480;BME280;29067;35.492;-97.520;2023-04-28T07:24:19;96634.10;;;6.95;67.17
43480;BME280;29067;35.492;-97.520;2023-04-28T07:26:47;96639.32;;;8.01;66.27
43480;BME280;29067;35.492;-97.520;2023-04-28T07:29:15;96652.91;;;7.94;65.86
43480;BME280;29067;35.492;-97.520;2023-04-28T07:31:43;96649.81;;;8.81;64.62
43480;BME280;29067;35.492;-97.520;2023-04-28T07:34:11;96650.57;;;9.29;62.38
43480;BME280;29067;35.492;-97.520;2023-04-28T07:36:39;96653.54;;;9.85;59.86
43480;BME280;29067;35.492;-97.520;2023-04-28T07:39:08;96659.23;;;9.57;60.40
43480;BME280;29067;35.492;-97.520;2023-04-28T07:41:37;96688.85;;;8.05;62.57
43480;BME280;29067;35.492;-97.520;2023-04-28T07:44:06;96709.35;;;9.50;61.11
43480;BME280;29067;35.492;-97.520;2023-04-28T07:46:34;96717.57;;;8.29;61.95
43480;BME280;29067;35.492;-97.520;2023-04-28T07:49:02;96717.82;;;8.30;62.37
43480;BME280;29067;35.492;-97.520;2023-04-28T07:51:30;96716.89;;;7.83;63.57
43480;BME280;29067;35.492;-97.520;2023-04-28T07:53:58;96721.43;;;6.48;67.83
43480;BME280;29067;35.492;-97.520;2023-04-28T07:56:26;96717.65;;;7.60;64.87
43480;BME280;29067;35.492;-97.520;2023-04-28T07:58:54;96717.27;;;7.48;64.41
43480;BME280;29067;35.492;-97.520;2023-04-28T08:01:22;96724.83;;;9.27;60.93
43480;BME280;29067;35.492;-97.520;2023-04-28T08:03:50;96732.56;;;6.75;64.69
43480;BME280;29067;35.492;-97.520;2023-04-28T08:06:19;96731.92;;;8.47;63.52
43480;BME280;29067;35.492;-97.520;2023-04-28T08:08:47;96727.32;;;8.88;61.20
43480;BME280;29067;35.492;-97.520;2023-04-28T08:11:16;96723.57;;;8.39;62.72
43480;BME280;29067;35.492;-97.520;2023-04-28T08:13:44;96713.19;;;8.61;62.51
43480;BME280;29067;35.492;-97.520;2023-04-28T08:16:12;96699.38;;;8.65;61.10
43480;BME280;29067;35.492;-97.520;2023-04-28T08:18:40;96693.10;;;9.11;60.41
43480;BME280;29067;35.492;-97.520;2023-04-28T08:21:07;96698.60;;;8.92;60.89
43480;BME280;29067;35.492;-97.520;2023-04-28T08:23:35;96689.05;;;8.11;61.57
43480;BME280;29067;35.492;-97.520;2023-04-28T08:26:04;96691.85;;;8.79;60.84
43480;BME280;29067;35.492;-97.520;2023-04-28T08:28:32;96699.23;;;8.85;59.75
43480;BME280;29067;35.492;-97.520;2023-04-28T08:31:00;96682.49;;;8.09;63.04
43480;BME280;29067;35.492;-97.520;2023-04-28T08:33:27;96691.04;;;8.75;62.95
43480;BME280;29067;35.492;-97.520;2023-04-28T08:35:56;96707.66;;;9.46;60.30
43480;BME280;29067;35.492;-97.520;2023-04-28T08:38:26;96701.96;;;9.78;59.32
43480;BME280;29067;35.492;-97.520;2023-04-28T08:40:53;96707.23;;;7.37;62.28
43480;BME280;29067;35.492;-97.520;2023-04-28T08:43:21;96706.14;;;9.39;60.39
43480;BME280;29067;35.492;-97.520;2023-04-28T08:45:49;96700.33;;;6.57;65.68
43480;BME280;29067;35.492;-97.520;2023-04-28T08:48:19;96696.59;;;6.79;65.39
43480;BME280;29067;35.492;-97.520;2023-04-28T08:50:50;96696.02;;;7.52;64.92
43480;BME280;29067;35.492;-97.520;2023-04-28T08:53:23;96689.20;;;7.41;65.25
43480;BME280;29067;35.492;-97.520;2023-04-28T08:55:53;96679.90;;;7.85;64.09
43480;BME280;29067;35.492;-97.520;2023-04-28T08:58:22;96689.69;;;9.18;61.56
43480;BME280;29067;35.492;-97.520;2023-04-28T09:00:51;96697.75;;;6.30;65.52
43480;BME280;29067;35.492;-97.520;2023-04-28T09:03:19;96698.74;;;7.24;64.56
43480;BME280;29067;35.492;-97.520;2023-04-28T09:05:48;96711.38;;;6.85;66.00
43480;BME280;29067;35.492;-97.520;2023-04-28T09:08:16;96715.76;;;5.16;68.93
43480;BME280;29067;35.492;-97.520;2023-04-28T09:10:44;96714.04;;;6.60;66.49
43480;BME280;29067;35.492;-97.520;2023-04-28T09:13:24;96707.14;;;7.64;64.78
43480;BME280;29067;35.492;-97.520;2023-04-28T09:15:59;96695.11;;;8.11;63.15
43480;BME280;29067;35.492;-97.520;2023-04-28T09:18:27;96692.52;;;6.79;65.84
43480;BME280;29067;35.492;-97.520;2023-04-28T09:21:03;96672.65;;;6.69;66.45
43480;BME280;29067;35.492;-97.520;2023-04-28T09:23:31;96664.63;;;6.27;66.73
43480;BME280;29067;35.492;-97.520;2023-04-28T09:26:06;96669.51;;;8.43;64.47
43480;BME280;29067;35.492;-97.520;2023-04-28T09:28:35;96668.06;;;5.78;66.35
43480;BME280;29067;35.492;-97.520;2023-04-28T09:31:03;96668.02;;;6.26;68.42
43480;BME280;29067;35.492;-97.520;2023-04-28T09:33:31;96666.10;;;7.52;64.56
43480;BME280;29067;35.492;-97.520;2023-04-28T09:35:59;96665.14;;;8.71;62.78
43480;BME280;29067;35.492;-97.520;2023-04-28T09:38:28;96666.66;;;7.82;63.13
43480;BME280;29067;35.492;-97.520;2023-04-28T09:40:57;96674.99;;;5.46;66.35
43480;BME280;29067;35.492;-97.520;2023-04-28T09:43:28;96676.77;;;7.97;64.36
43480;BME280;29067;35.492;-97.520;2023-04-28T09:45:57;96681.07;;;7.19;63.24
43480;BME280;29067;35.492;-97.520;2023-04-28T09:48:29;96683.59;;;7.12;64.14
43480;BME280;29067;35.492;-97.520;2023-04-28T09:50:58;96689.60;;;5.54;68.08
43480;BME280;29067;35.492;-97.520;2023-04-28T09:53:27;96697.43;;;4.10;73.36
43480;BME280;29067;35.492;-97.520;2023-04-28T09:55:56;96703.09;;;4.55;75.71
43480;BME280;29067;35.492;-97.520;2023-04-28T09:58:26;96702.57;;;4.82;76.49
43480;BME280;29067;35.492;-97.520;2023-04-28T10:00:55;96697.97;;;6.46;71.05
43480;BME280;29067;35.492;-97.520;2023-04-28T10:03:26;96700.37;;;5.79;71.74
43480;BME280;29067;35.492;-97.520;2023-04-28T10:05:55;96696.13;;;6.56;70.04
43480;BME280;29067;35.492;-97.520;2023-04-28T10:08:25;96690.47;;;7.22;67.49
43480;BME280;29067;35.492;-97.520;2023-04-28T10:10:53;96691.32;;;7.30;66.87
43480;BME280;29067;35.492;-97.520;2023-04-28T10:13:22;96691.66;;;7.12;66.79
43480;BME280;29067;35.492;-97.520;2023-04-28T10:15:51;96697.45;;;7.02;67.05
43480;BME280;29067;35.492;-97.520;2023-04-28T10:18:21;96694.96;;;8.63;65.64
43480;BME280;29067;35.492;-97.520;2023-04-28T10:37:04;96696.75;;;10.03;66.56
43480;BME280;29067;35.492;-97.520;2023-04-28T10:39:31;96693.19;;;4.73;68.98
43480;BME280;29067;35.492;-97.520;2023-04-28T10:41:59;96706.64;;;6.92;65.91
43480;BME280;29067;35.492;-97.520;2023-04-28T10:44:44;96704.94;;;9.71;62.47
43480;BME280;29067;35.492;-97.520;2023-04-28T10:47:12;96709.56;;;7.91;63.85
43480;BME280;29067;35.492;-97.520;2023-04-28T10:50:12;96706.82;;;7.67;65.40
43480;BME280;29067;35.492;-97.520;2023-04-28T10:52:56;96715.35;;;7.98;64.77
43480;BME280;29067;35.492;-97.520;2023-04-28T10:55:29;96729.14;;;7.29;66.52
43480;BME280;29067;35.492;-97.520;2023-04-28T10:59:24;96752.08;;;7.59;66.25
43480;BME280;29067;35.492;-97.520;2023-04-28T11:03:01;96780.33;;;8.49;65.77
43480;BME280;29067;35.492;-97.520;2023-04-28T11:05:29;96790.62;;;7.14;69.60
43480;BME280;29067;35.492;-97.520;2023-04-28T11:08:43;96790.35;;;8.66;66.89
43480;BME280;29067;35.492;-97.520;2023-04-28T11:11:16;96784.31;;;8.24;66.40
43480;BME280;29067;35.492;-97.520;2023-04-28T11:13:45;96780.43;;;8.71;65.54
43480;BME280;29067;35.492;-97.520;2023-04-28T11:16:17;96774.96;;;8.42;66.14
43480;BME280;29067;35.492;-97.520;2023-04-28T11:18:57;96775.37;;;8.21;65.00
43480;BME280;29067;35.492;-97.520;2023-04-28T11:21:26;96779.18;;;8.17;66.36
43480;BME280;29067;35.492;-97.520;2023-04-28T11:23:54;96778.71;;;8.29;67.72
43480;BME280;29067;35.492;-97.520;2023-04-28T11:26:24;96774.83;;;8.91;65.58
43480;BME280;29067;35.492;-97.520;2023-04-28T11:28:54;96771.98;;;7.46;68.73
43480;BME280;29067;35.492;-97.520;2023-04-28T11:31:24;96765.57;;;7.62;69.68
43480;BME280;29067;35.492;-97.520;2023-04-28T11:33:57;96757.60;;;8.48;67.32
43480;BME280;29067;35.492;-97.520;2023-04-28T11:36:28;96752.87;;;9.09;65.83
43480;BME280;29067;35.492;-97.520;2023-04-28T11:38:56;96747.26;;;9.97;64.31
43480;BME280;29067;35.492;-97.520;2023-04-28T11:41:25;96741.96;;;9.58;63.09
43480;BME280;29067;35.492;-97.520;2023-04-28T11:43:54;96742.51;;;9.93;62.03
43480;BME280;29067;35.492;-97.520;2023-04-28T11:46:23;96747.28;;;9.65;62.39
43480;BME280;29067;35.492;-97.520;2023-04-28T11:49:00;96739.71;;;10.48;61.15
43480;BME280;29067;35.492;-97.520;2023-04-28T11:51:34;96737.35;;;9.42;62.24
43480;BME280;29067;35.492;-97.520;2023-04-28T11:54:03;96747.17;;;9.41;61.70
43480;BME280;29067;35.492;-97.520;2023-04-28T11:56:35;96755.78;;;8.49;62.81
43480;BME280;29067;35.492;-97.520;2023-04-28T11:59:06;96758.52;;;8.14;63.57
43480;BME280;29067;35.492;-97.520;2023-04-28T12:01:43;96759.43;;;8.36;64.43
43480;BME280;29067;35.492;-97.520;2023-04-28T12:04:12;96762.65;;;8.07;64.24
43480;BME280;29067;35.492;-97.520;2023-04-28T12:06:41;96760.96;;;7.10;68.89
43480;BME280;29067;35.492;-97.520;2023-04-28T12:09:17;96763.33;;;8.32;64.52
43480;BME280;29067;35.492;-97.520;2023-04-28T12:12:03;96766.34;;;6.59;67.54
43480;BME280;29067;35.492;-97.520;2023-04-28T12:15:09;96774.46;;;5.99;71.07
43480;BME280;29067;35.492;-97.520;2023-04-28T12:17:39;96773.25;;;7.14;71.46
43480;BME280;29067;35.492;-97.520;2023-04-28T12:20:08;96775.99;;;8.61;66.68
43480;BME280;29067;35.492;-97.520;2023-04-28T12:22:45;96775.80;;;9.67;64.28
43480;BME280;29067;35.492;-97.520;2023-04-28T12:25:15;96779.49;;;7.81;67.49
43480;BME280;29067;35.492;-97.520;2023-04-28T12:27:58;96784.30;;;8.15;66.19
43480;BME280;29067;35.492;-97.520;2023-04-28T12:30:27;96786.18;;;8.04;67.64
43480;BME280;29067;35.492;-97.520;2023-04-28T12:32:56;96784.14;;;9.65;62.93
43480;BME280;29067;35.492;-97.520;2023-04-28T12:35:25;96790.32;;;9.35;64.19
43480;BME280;29067;35.492;-97.520;2023-04-28T12:37:54;96795.42;;;10.67;62.06
43480;BME280;29067;35.492;-97.520;2023-04-28T12:40:22;96794.36;;;11.77;59.96
43480;BME280;29067;35.492;-97.520;2023-04-28T12:42:51;96792.30;;;11.53;59.10
43480;BME280;29067;35.492;-97.520;2023-04-28T12:45:19;96793.06;;;11.40;59.01
43480;BME280;29067;35.492;-97.520;2023-04-28T12:47:47;96794.60;;;11.41;58.62
43480;BME280;29067;35.492;-97.520;2023-04-28T12:50:16;96798.11;;;11.10;59.60
43480;BME280;29067;35.492;-97.520;2023-04-28T12:52:44;96808.78;;;10.48;60.24
43480;BME280;29067;35.492;-97.520;2023-04-28T12:55:12;96820.24;;;10.20;61.56
43480;BME280;29067;35.492;-97.520;2023-04-28T12:57:40;96827.73;;;10.18;61.93
43480;BME280;29067;35.492;-97.520;2023-04-28T13:00:09;96832.31;;;12.11;58.58
43480;BME280;29067;35.492;-97.520;2023-04-28T13:02:37;96845.94;;;11.18;60.67
43480;BME280;29067;35.492;-97.520;2023-04-28T13:05:05;96851.89;;;11.71;57.96
43480;BME280;29067;35.492;-97.520;2023-04-28T13:07:34;96855.99;;;11.54;59.05
43480;BME280;29067;35.492;-97.520;2023-04-28T13:10:02;96861.11;;;12.01;59.14
43480;BME280;29067;35.492;-97.520;2023-04-28T13:12:31;96868.07;;;10.66;60.96
43480;BME280;29067;35.492;-97.520;2023-04-28T13:15:00;96873.83;;;10.42;60.84